createdAt,value
2023-09-08T00:01:58.462Z,101529.13
2023-09-08T00:32:01.368Z,101507.67
2023-09-08T01:02:06.012Z,101502.27
2023-09-08T01:32:09.006Z,101485.19
2023-09-08T02:02:13.140Z,101482.48
2023-09-08T02:32:16.364Z,101476.25
2023-09-08T03:02:19.700Z,101458.04
2023-09-08T03:32:23.547Z,101461.34
2023-09-08T04:02:28.372Z,101461.75
2023-09-08T04:32:31.746Z,101472.73
2023-09-08T05:02:36.755Z,101477.86
2023-09-08T05:32:40.159Z,101475.27
2023-09-08T06:02:43.589Z,101487.84
2023-09-08T06:32:47.502Z,101481.11
2023-09-08T07:02:50.914Z,101482.17
2023-09-08T07:32:54.965Z,101474.39
2023-09-08T08:02:58.204Z,101466.67
2023-09-08T08:33:02.279Z,101451.88
2023-09-08T09:03:14.768Z,101427.47
2023-09-08T09:33:19.212Z,101396.13
2023-09-08T10:03:23.585Z,101374.44
2023-09-08T10:33:26.633Z,101373.60
2023-09-08T11:03:30.680Z,101337.86
2023-09-08T11:33:33.896Z,101317.83
2023-09-08T12:03:38.835Z,101293.48
2023-09-08T12:33:41.797Z,101272.29
2023-09-08T13:03:45.828Z,101238.77
2023-09-08T13:33:48.717Z,101221.80
2023-09-08T14:33:58.737Z,101179.33
2023-09-08T15:04:02.760Z,101165.15
2023-09-08T15:34:06.004Z,101155.03
2023-09-08T16:04:09.347Z,101133.22
2023-09-08T16:34:12.855Z,101124.27
2023-09-08T17:04:17.223Z,101134.70
2023-09-08T17:34:21.093Z,101143.80
2023-09-08T18:04:25.250Z,101148.79
2023-09-08T18:34:28.595Z,101144.81
2023-09-08T19:04:31.913Z,101142.70
2023-09-08T19:34:34.803Z,101145.06
2023-09-08T20:04:39.436Z,101149.00
2023-09-08T20:34:42.396Z,101140.16
2023-09-08T21:04:47.411Z,101140.33
2023-09-08T21:34:50.297Z,101123.29
2023-09-08T22:04:53.812Z,101124.25
2023-09-08T22:34:56.899Z,101121.31
2023-09-08T23:05:01.499Z,101120.42
2023-09-08T23:35:04.571Z,101121.02
